sensor_id;sensor_type;location;lat;lon;timestamp;temperature;humidity
20594;DHT22;10455;48.732;10.266;2023-01-31T00:00:34;1.40;99.90
20594;DHT22;10455;48.732;10.266;2023-01-31T00:05:36;1.40;99.90
20594;DHT22;10455;48.732;10.266;2023-01-31T00:10:38;1.50;99.90
20594;DHT22;10455;48.732;10.266;2023-01-31T00:15:41;1.30;99.90
20594;DHT22;10455;48.732;10.266;2023-01-31T00:20:43;1.30;99.90
20594;DHT22;10455;48.732;10.266;2023-01-31T00:25:45;1.20;99.90
20594;DHT22;10455;48.732;10.266;2023-01-31T00:30:48;1.20;99.90
20594;DHT22;10455;48.732;10.266;2023-01-31T00:35:50;1.20;99.90
20594;DHT22;10455;48.732;10.266;2023-01-31T00:40:52;1.30;99.90
20594;DHT22;10455;48.732;10.266;2023-01-31T00:45:56;1.20;99.90
20594;DHT22;10455;48.732;10.266;2023-01-31T00:50:58;1.20;99.90
20594;DHT22;10455;48.732;10.266;2023-01-31T00:56:03;1.10;99.90
20594;DHT22;10455;48.732;10.266;2023-01-31T01:01:09;0.90;99.90
20594;DHT22;10455;48.732;10.266;2023-01-31T01:06:11;0.80;99.90
20594;DHT22;10455;48.732;10.266;2023-01-31T01:11:15;0.80;99.90
20594;DHT22;10455;48.732;10.266;2023-01-31T01:16:21;0.70;99.90
20594;DHT22;10455;48.732;10.266;2023-01-31T01:21:25;0.70;99.90
20594;DHT22;10455;48.732;10.266;2023-01-31T01:26:29;0.70;99.90
20594;DHT22;10455;48.732;10.266;2023-01-31T01:31:33;0.60;99.90
20594;DHT22;10455;48.732;10.266;2023-01-31T01:36:35;0.60;99.90
20594;DHT22;10455;48.732;10.266;2023-01-31T01:41:38;0.50;99.90
20594;DHT22;10455;48.732;10.266;2023-01-31T01:46:43;0.50;99.90
20594;DHT22;10455;48.732;10.266;2023-01-31T01:51:47;0.40;99.90
20594;DHT22;10455;48.732;10.266;2023-01-31T01:56:53;0.30;99.90
20594;DHT22;10455;48.732;10.266;2023-01-31T02:01:58;0.40;99.90
20594;DHT22;10455;48.732;10.266;2023-01-31T02:06:59;0.30;99.90
20594;DHT22;10455;48.732;10.266;2023-01-31T02:12:02;0.40;99.90
20594;DHT22;10455;48.732;10.266;2023-01-31T02:17:11;0.30;99.90
20594;DHT22;10455;48.732;10.266;2023-01-31T02:22:16;0.30;99.90
20594;DHT22;10455;48.732;10.266;2023-01-31T02:27:39;0.40;99.90
20594;DHT22;10455;48.732;10.266;2023-01-31T02:33:02;0.30;99.90
20594;DHT22;10455;48.732;10.266;2023-01-31T02:38:14;0.40;99.90
20594;DHT22;10455;48.732;10.266;2023-01-31T02:43:24;0.50;99.90
20594;DHT22;10455;48.732;10.266;2023-01-31T02:48:35;0.50;99.90
20594;DHT22;10455;48.732;10.266;2023-01-31T02:53:43;0.50;99.90
20594;DHT22;10455;48.732;10.266;2023-01-31T02:58:52;0.60;99.90
20594;DHT22;10455;48.732;10.266;2023-01-31T03:04:00;0.60;99.90
20594;DHT22;10455;48.732;10.266;2023-01-31T03:09:06;0.60;99.90
20594;DHT22;10455;48.732;10.266;2023-01-31T03:14:17;0.80;99.90
20594;DHT22;10455;48.732;10.266;2023-01-31T03:19:26;0.80;99.90
20594;DHT22;10455;48.732;10.266;2023-01-31T03:24:30;0.80;99.90
20594;DHT22;10455;48.732;10.266;2023-01-31T03:29:34;0.80;99.90
20594;DHT22;10455;48.732;10.266;2023-01-31T03:34:39;0.80;99.90
20594;DHT22;10455;48.732;10.266;2023-01-31T03:39:45;0.90;99.90
20594;DHT22;10455;48.732;10.266;2023-01-31T03:44:53;0.70;99.90
20594;DHT22;10455;48.732;10.266;2023-01-31T03:50:03;0.60;99.90
20594;DHT22;10455;48.732;10.266;2023-01-31T03:55:11;0.70;99.90
20594;DHT22;10455;48.732;10.266;2023-01-31T04:00:16;0.70;99.90
20594;DHT22;10455;48.732;10.266;2023-01-31T04:05:23;0.90;99.90
20594;DHT22;10455;48.732;10.266;2023-01-31T04:10:30;1.00;99.90
20594;DHT22;10455;48.732;10.266;2023-01-31T04:15:32;1.10;99.90
20594;DHT22;10455;48.732;10.266;2023-01-31T04:20:35;1.10;99.90
20594;DHT22;10455;48.732;10.266;2023-01-31T04:25:37;1.30;99.90
20594;DHT22;10455;48.732;10.266;2023-01-31T04:30:39;1.50;99.90
20594;DHT22;10455;48.732;10.266;2023-01-31T04:35:42;1.60;99.90
20594;DHT22;10455;48.732;10.266;2023-01-31T04:40:44;1.50;99.90
20594;DHT22;10455;48.732;10.266;2023-01-31T04:45:46;1.50;99.90
20594;DHT22;10455;48.732;10.266;2023-01-31T04:50:49;1.50;99.90
20594;DHT22;10455;48.732;10.266;2023-01-31T04:55:52;1.60;99.90
20594;DHT22;10455;48.732;10.266;2023-01-31T05:00:54;1.60;99.90
20594;DHT22;10455;48.732;10.266;2023-01-31T05:05:58;1.60;99.90
20594;DHT22;10455;48.732;10.266;2023-01-31T05:11:01;1.70;99.90
20594;DHT22;10455;48.732;10.266;2023-01-31T05:16:05;1.70;99.90
20594;DHT22;10455;48.732;10.266;2023-01-31T05:21:09;1.60;99.90
20594;DHT22;10455;48.732;10.266;2023-01-31T05:26:11;1.70;99.90
20594;DHT22;10455;48.732;10.266;2023-01-31T05:31:13;1.50;99.90
20594;DHT22;10455;48.732;10.266;2023-01-31T05:36:17;1.30;99.90
20594;DHT22;10455;48.732;10.266;2023-01-31T05:41:18;0.90;99.90
20594;DHT22;10455;48.732;10.266;2023-01-31T05:46:20;0.60;99.90
20594;DHT22;10455;48.732;10.266;2023-01-31T05:51:23;0.40;99.90
20594;DHT22;10455;48.732;10.266;2023-01-31T05:56:25;0.30;99.90
20594;DHT22;10455;48.732;10.266;2023-01-31T06:01:28;0.20;99.90
20594;DHT22;10455;48.732;10.266;2023-01-31T06:06:31;0.20;99.90
20594;DHT22;10455;48.732;10.266;2023-01-31T06:11:33;0.30;99.90
20594;DHT22;10455;48.732;10.266;2023-01-31T06:16:35;0.40;99.90
20594;DHT22;10455;48.732;10.266;2023-01-31T06:21:38;0.50;99.90
20594;DHT22;10455;48.732;10.266;2023-01-31T06:26:40;0.50;99.90
20594;DHT22;10455;48.732;10.266;2023-01-31T06:31:43;0.40;99.90
20594;DHT22;10455;48.732;10.266;2023-01-31T06:36:46;0.40;99.90
20594;DHT22;10455;48.732;10.266;2023-01-31T06:41:48;0.50;99.90
20594;DHT22;10455;48.732;10.266;2023-01-31T06:46:50;0.50;99.90
20594;DHT22;10455;48.732;10.266;2023-01-31T06:51:53;0.30;99.90
20594;DHT22;10455;48.732;10.266;2023-01-31T06:56:55;0.20;99.90
20594;DHT22;10455;48.732;10.266;2023-01-31T07:01:57;0.10;99.90
20594;DHT22;10455;48.732;10.266;2023-01-31T07:07:01;0.20;99.90
20594;DHT22;10455;48.732;10.266;2023-01-31T07:12:03;0.10;99.90
20594;DHT22;10455;48.732;10.266;2023-01-31T07:17:05;0.20;99.90
20594;DHT22;10455;48.732;10.266;2023-01-31T07:22:09;0.20;99.90
20594;DHT22;10455;48.732;10.266;2023-01-31T07:27:12;0.20;99.90
20594;DHT22;10455;48.732;10.266;2023-01-31T07:32:13;0.40;99.90
20594;DHT22;10455;48.732;10.266;2023-01-31T07:37:18;0.40;99.90
20594;DHT22;10455;48.732;10.266;2023-01-31T07:42:20;0.30;99.90
20594;DHT22;10455;48.732;10.266;2023-01-31T07:47:21;0.50;99.90
20594;DHT22;10455;48.732;10.266;2023-01-31T07:52:25;0.40;99.90
20594;DHT22;10455;48.732;10.266;2023-01-31T07:57:29;0.50;99.90
20594;DHT22;10455;48.732;10.266;2023-01-31T08:02:31;0.70;99.90
20594;DHT22;10455;48.732;10.266;2023-01-31T08:07:52;0.60;99.90
20594;DHT22;10455;48.732;10.266;2023-01-31T08:13:09;0.90;99.90
20594;DHT22;10455;48.732;10.266;2023-01-31T08:18:11;1.30;99.90
20594;DHT22;10455;48.732;10.266;2023-01-31T08:23:14;1.00;99.90
20594;DHT22;10455;48.732;10.266;2023-01-31T08:28:16;0.80;99.90
20594;DHT22;10455;48.732;10.266;2023-01-31T08:33:18;0.70;99.90
20594;DHT22;10455;48.732;10.266;2023-01-31T08:38:22;0.90;99.90
20594;DHT22;10455;48.732;10.266;2023-01-31T08:43:23;1.00;99.90
20594;DHT22;10455;48.732;10.266;2023-01-31T08:48:25;1.10;99.90
20594;DHT22;10455;48.732;10.266;2023-01-31T08:53:29;1.70;99.90
20594;DHT22;10455;48.732;10.266;2023-01-31T08:58:31;2.70;99.90
20594;DHT22;10455;48.732;10.266;2023-01-31T09:03:34;3.30;99.90
20594;DHT22;10455;48.732;10.266;2023-01-31T09:08:38;3.80;99.90
20594;DHT22;10455;48.732;10.266;2023-01-31T09:13:40;3.20;99.90
20594;DHT22;10455;48.732;10.266;2023-01-31T09:18:42;3.20;99.90
20594;DHT22;10455;48.732;10.266;2023-01-31T09:23:47;3.10;99.90
20594;DHT22;10455;48.732;10.266;2023-01-31T09:28:49;2.80;99.90
20594;DHT22;10455;48.732;10.266;2023-01-31T09:33:51;3.00;99.90
20594;DHT22;10455;48.732;10.266;2023-01-31T09:38:56;3.60;99.90
20594;DHT22;10455;48.732;10.266;2023-01-31T09:44:01;3.60;99.90
20594;DHT22;10455;48.732;10.266;2023-01-31T09:49:06;3.30;99.90
20594;DHT22;10455;48.732;10.266;2023-01-31T09:54:19;3.60;99.90
20594;DHT22;10455;48.732;10.266;2023-01-31T09:59:24;3.90;99.90
20594;DHT22;10455;48.732;10.266;2023-01-31T10:04:42;4.20;99.90
20594;DHT22;10455;48.732;10.266;2023-01-31T10:09:52;3.80;99.90
20594;DHT22;10455;48.732;10.266;2023-01-31T10:14:59;4.00;99.90
20594;DHT22;10455;48.732;10.266;2023-01-31T10:20:04;4.20;99.90
20594;DHT22;10455;48.732;10.266;2023-01-31T10:25:19;3.90;99.90
20594;DHT22;10455;48.732;10.266;2023-01-31T10:30:30;4.50;99.90
20594;DHT22;10455;48.732;10.266;2023-01-31T10:35:40;5.20;99.90
20594;DHT22;10455;48.732;10.266;2023-01-31T10:40:47;5.30;99.90
20594;DHT22;10455;48.732;10.266;2023-01-31T10:45:50;5.50;99.90
20594;DHT22;10455;48.732;10.266;2023-01-31T10:51:01;5.50;99.90
20594;DHT22;10455;48.732;10.266;2023-01-31T10:56:10;5.60;99.90
20594;DHT22;10455;48.732;10.266;2023-01-31T11:01:14;5.70;99.90
20594;DHT22;10455;48.732;10.266;2023-01-31T11:06:16;5.30;99.90
20594;DHT22;10455;48.732;10.266;2023-01-31T11:11:22;4.90;99.90
20594;DHT22;10455;48.732;10.266;2023-01-31T11:16:25;5.40;99.90
20594;DHT22;10455;48.732;10.266;2023-01-31T11:21:31;5.20;99.90
20594;DHT22;10455;48.732;10.266;2023-01-31T11:26:37;4.90;99.90
20594;DHT22;10455;48.732;10.266;2023-01-31T11:31:42;5.20;99.90
20594;DHT22;10455;48.732;10.266;2023-01-31T11:36:47;5.30;99.90
20594;DHT22;10455;48.732;10.266;2023-01-31T11:41:50;6.20;99.90
20594;DHT22;10455;48.732;10.266;2023-01-31T11:46:54;5.20;99.90
20594;DHT22;10455;48.732;10.266;2023-01-31T11:51:59;5.20;99.90
20594;DHT22;10455;48.732;10.266;2023-01-31T11:57:13;6.30;99.90
20594;DHT22;10455;48.732;10.266;2023-01-31T12:02:25;7.50;99.90
20594;DHT22;10455;48.732;10.266;2023-01-31T12:07:39;5.50;99.90
20594;DHT22;10455;48.732;10.266;2023-01-31T12:12:43;5.20;99.90
20594;DHT22;10455;48.732;10.266;2023-01-31T12:17:47;5.00;99.90
20594;DHT22;10455;48.732;10.266;2023-01-31T12:22:58;5.30;99.90
20594;DHT22;10455;48.732;10.266;2023-01-31T12:28:11;5.60;99.90
20594;DHT22;10455;48.732;10.266;2023-01-31T12:33:39;6.30;99.90
20594;DHT22;10455;48.732;10.266;2023-01-31T12:38:55;6.00;99.90
20594;DHT22;10455;48.732;10.266;2023-01-31T12:44:22;5.10;99.90
20594;DHT22;10455;48.732;10.266;2023-01-31T12:49:49;5.00;99.90
20594;DHT22;10455;48.732;10.266;2023-01-31T12:55:11;5.00;99.90
20594;DHT22;10455;48.732;10.266;2023-01-31T13:00:26;5.20;99.90
20594;DHT22;10455;48.732;10.266;2023-01-31T13:05:33;4.80;99.90
20594;DHT22;10455;48.732;10.266;2023-01-31T13:10:40;4.60;99.90
20594;DHT22;10455;48.732;10.266;2023-01-31T13:15:47;4.40;99.90
20594;DHT22;10455;48.732;10.266;2023-01-31T13:20:54;4.50;99.90
20594;DHT22;10455;48.732;10.266;2023-01-31T13:26:04;4.20;99.90
20594;DHT22;10455;48.732;10.266;2023-01-31T13:31:14;4.00;99.90
20594;DHT22;10455;48.732;10.266;2023-01-31T13:36:23;4.10;99.90
20594;DHT22;10455;48.732;10.266;2023-01-31T13:41:28;4.30;99.90
20594;DHT22;10455;48.732;10.266;2023-01-31T13:46:35;4.30;99.90
20594;DHT22;10455;48.732;10.266;2023-01-31T13:51:41;4.60;99.90
20594;DHT22;10455;48.732;10.266;2023-01-31T13:56:49;4.70;99.90
20594;DHT22;10455;48.732;10.266;2023-01-31T14:01:55;4.40;99.90
20594;DHT22;10455;48.732;10.266;2023-01-31T14:07:21;4.20;99.90
20594;DHT22;10455;48.732;10.266;2023-01-31T14:12:34;4.20;99.90
20594;DHT22;10455;48.732;10.266;2023-01-31T14:18:00;4.10;99.90
20594;DHT22;10455;48.732;10.266;2023-01-31T14:23:27;4.10;99.90
20594;DHT22;10455;48.732;10.266;2023-01-31T14:28:30;4.00;99.90
20594;DHT22;10455;48.732;10.266;2023-01-31T14:33:33;3.90;99.90
20594;DHT22;10455;48.732;10.266;2023-01-31T14:39:03;3.90;99.90
20594;DHT22;10455;48.732;10.266;2023-01-31T14:44:19;3.90;99.90
20594;DHT22;10455;48.732;10.266;2023-01-31T14:49:36;3.80;99.90
20594;DHT22;10455;48.732;10.266;2023-01-31T14:54:53;3.50;99.90
20594;DHT22;10455;48.732;10.266;2023-01-31T15:00:02;3.20;99.90
20594;DHT22;10455;48.732;10.266;2023-01-31T15:05:09;3.20;99.90
20594;DHT22;10455;48.732;10.266;2023-01-31T15:15:48;3.20;99.90
20594;DHT22;10455;48.732;10.266;2023-01-31T15:20:56;3.20;99.90
20594;DHT22;10455;48.732;10.266;2023-01-31T15:26:00;3.20;99.90
20594;DHT22;10455;48.732;10.266;2023-01-31T15:31:11;3.40;99.90
20594;DHT22;10455;48.732;10.266;2023-01-31T15:36:22;3.50;99.90
20594;DHT22;10455;48.732;10.266;2023-01-31T15:41:31;3.70;99.90
20594;DHT22;10455;48.732;10.266;2023-01-31T15:46:36;3.60;99.90
20594;DHT22;10455;48.732;10.266;2023-01-31T15:51:39;3.30;99.90
20594;DHT22;10455;48.732;10.266;2023-01-31T15:56:41;3.10;99.90
20594;DHT22;10455;48.732;10.266;2023-01-31T16:01:46;3.00;99.90
20594;DHT22;10455;48.732;10.266;2023-01-31T16:06:50;3.00;99.90
20594;DHT22;10455;48.732;10.266;2023-01-31T16:11:52;2.90;99.90
20594;DHT22;10455;48.732;10.266;2023-01-31T16:16:56;2.80;99.90
20594;DHT22;10455;48.732;10.266;2023-01-31T16:22:00;2.70;99.90
20594;DHT22;10455;48.732;10.266;2023-01-31T16:27:06;2.60;99.90
20594;DHT22;10455;48.732;10.266;2023-01-31T16:32:15;2.60;99.90
20594;DHT22;10455;48.732;10.266;2023-01-31T16:37:28;2.50;99.90
20594;DHT22;10455;48.732;10.266;2023-01-31T16:42:31;2.60;99.90
20594;DHT22;10455;48.732;10.266;2023-01-31T16:47:46;2.70;99.90
20594;DHT22;10455;48.732;10.266;2023-01-31T16:53:24;2.50;99.90
20594;DHT22;10455;48.732;10.266;2023-01-31T16:58:43;2.50;99.90
20594;DHT22;10455;48.732;10.266;2023-01-31T17:04:00;2.50;99.90
20594;DHT22;10455;48.732;10.266;2023-01-31T17:09:06;2.60;99.90
20594;DHT22;10455;48.732;10.266;2023-01-31T17:14:09;2.50;99.90
20594;DHT22;10455;48.732;10.266;2023-01-31T17:19:11;2.30;99.90
20594;DHT22;10455;48.732;10.266;2023-01-31T17:24:16;2.30;99.90
20594;DHT22;10455;48.732;10.266;2023-01-31T17:29:19;2.30;99.90
20594;DHT22;10455;48.732;10.266;2023-01-31T17:34:20;2.40;99.90
20594;DHT22;10455;48.732;10.266;2023-01-31T17:39:24;2.40;99.90
20594;DHT22;10455;48.732;10.266;2023-01-31T17:44:25;2.30;99.90
20594;DHT22;10455;48.732;10.266;2023-01-31T17:49:27;2.30;99.90
20594;DHT22;10455;48.732;10.266;2023-01-31T17:54:31;2.30;99.90
20594;DHT22;10455;48.732;10.266;2023-01-31T17:59:33;2.30;99.90
20594;DHT22;10455;48.732;10.266;2023-01-31T18:04:35;2.20;99.90
20594;DHT22;10455;48.732;10.266;2023-01-31T18:09:38;2.20;99.90
20594;DHT22;10455;48.732;10.266;2023-01-31T18:14:40;2.10;99.90
20594;DHT22;10455;48.732;10.266;2023-01-31T18:19:42;2.10;99.90
20594;DHT22;10455;48.732;10.266;2023-01-31T18:24:45;2.30;99.90
20594;DHT22;10455;48.732;10.266;2023-01-31T18:29:47;2.20;99.90
20594;DHT22;10455;48.732;10.266;2023-01-31T18:34:48;2.20;99.90
20594;DHT22;10455;48.732;10.266;2023-01-31T18:39:52;2.20;99.90
20594;DHT22;10455;48.732;10.266;2023-01-31T18:44:54;2.10;99.90
20594;DHT22;10455;48.732;10.266;2023-01-31T18:49:56;2.20;99.90
20594;DHT22;10455;48.732;10.266;2023-01-31T18:54:59;2.20;99.90
20594;DHT22;10455;48.732;10.266;2023-01-31T19:00:01;2.20;99.90
20594;DHT22;10455;48.732;10.266;2023-01-31T19:05:03;2.30;99.90
20594;DHT22;10455;48.732;10.266;2023-01-31T19:10:08;2.30;99.90
20594;DHT22;10455;48.732;10.266;2023-01-31T19:15:11;2.30;99.90
20594;DHT22;10455;48.732;10.266;2023-01-31T19:20:13;2.30;99.90
20594;DHT22;10455;48.732;10.266;2023-01-31T19:25:16;2.40;99.90
20594;DHT22;10455;48.732;10.266;2023-01-31T19:30:18;2.30;99.90
20594;DHT22;10455;48.732;10.266;2023-01-31T19:35:20;2.40;99.90
20594;DHT22;10455;48.732;10.266;2023-01-31T19:40:23;2.50;99.90
20594;DHT22;10455;48.732;10.266;2023-01-31T19:45:25;2.70;99.90
20594;DHT22;10455;48.732;10.266;2023-01-31T19:50:27;2.70;99.90
20594;DHT22;10455;48.732;10.266;2023-01-31T19:55:32;2.70;99.90
20594;DHT22;10455;48.732;10.266;2023-01-31T20:00:34;2.80;99.90
20594;DHT22;10455;48.732;10.266;2023-01-31T20:05:36;2.80;99.90
20594;DHT22;10455;48.732;10.266;2023-01-31T20:10:39;2.70;99.90
20594;DHT22;10455;48.732;10.266;2023-01-31T20:15:41;2.80;99.90
20594;DHT22;10455;48.732;10.266;2023-01-31T20:20:43;2.70;99.90
20594;DHT22;10455;48.732;10.266;2023-01-31T20:30:50;2.60;99.90
20594;DHT22;10455;48.732;10.266;2023-01-31T20:35:52;2.70;99.90
20594;DHT22;10455;48.732;10.266;2023-01-31T20:40:55;2.70;99.90
20594;DHT22;10455;48.732;10.266;2023-01-31T20:46:01;2.70;99.90
20594;DHT22;10455;48.732;10.266;2023-01-31T20:51:04;2.70;99.90
20594;DHT22;10455;48.732;10.266;2023-01-31T20:56:08;2.70;99.90
20594;DHT22;10455;48.732;10.266;2023-01-31T21:01:11;2.70;99.90
20594;DHT22;10455;48.732;10.266;2023-01-31T21:06:13;2.70;99.90
20594;DHT22;10455;48.732;10.266;2023-01-31T21:11:16;2.70;99.90
20594;DHT22;10455;48.732;10.266;2023-01-31T21:16:18;2.90;99.90
20594;DHT22;10455;48.732;10.266;2023-01-31T21:21:20;2.80;99.90
20594;DHT22;10455;48.732;10.266;2023-01-31T21:26:25;2.80;99.90
20594;DHT22;10455;48.732;10.266;2023-01-31T21:31:28;2.60;99.90
20594;DHT22;10455;48.732;10.266;2023-01-31T21:36:31;2.70;99.90
20594;DHT22;10455;48.732;10.266;2023-01-31T21:41:34;2.70;99.90
20594;DHT22;10455;48.732;10.266;2023-01-31T21:46:54;2.70;99.90
20594;DHT22;10455;48.732;10.266;2023-01-31T21:51:56;2.70;99.90
20594;DHT22;10455;48.732;10.266;2023-01-31T21:56:59;2.80;99.90
20594;DHT22;10455;48.732;10.266;2023-01-31T22:02:01;2.80;99.90
20594;DHT22;10455;48.732;10.266;2023-01-31T22:07:02;2.90;99.90
20594;DHT22;10455;48.732;10.266;2023-01-31T22:12:06;2.90;99.90
20594;DHT22;10455;48.732;10.266;2023-01-31T22:17:08;3.10;99.90
20594;DHT22;10455;48.732;10.266;2023-01-31T22:22:10;3.10;99.90
20594;DHT22;10455;48.732;10.266;2023-01-31T22:27:13;3.00;99.90
20594;DHT22;10455;48.732;10.266;2023-01-31T22:32:15;3.00;99.90
20594;DHT22;10455;48.732;10.266;2023-01-31T22:37:17;2.90;99.90
20594;DHT22;10455;48.732;10.266;2023-01-31T22:42:20;2.80;99.90
20594;DHT22;10455;48.732;10.266;2023-01-31T22:47:23;2.70;99.90
20594;DHT22;10455;48.732;10.266;2023-01-31T22:52:25;2.70;99.90
20594;DHT22;10455;48.732;10.266;2023-01-31T22:57:30;2.70;99.90
20594;DHT22;10455;48.732;10.266;2023-01-31T23:02:32;2.80;99.90
20594;DHT22;10455;48.732;10.266;2023-01-31T23:07:33;2.70;99.90
20594;DHT22;10455;48.732;10.266;2023-01-31T23:12:37;2.60;99.90
20594;DHT22;10455;48.732;10.266;2023-01-31T23:17:43;2.40;99.90
20594;DHT22;10455;48.732;10.266;2023-01-31T23:22:45;2.40;99.90
20594;DHT22;10455;48.732;10.266;2023-01-31T23:27:48;2.30;99.90
20594;DHT22;10455;48.732;10.266;2023-01-31T23:32:51;2.40;99.90
20594;DHT22;10455;48.732;10.266;2023-01-31T23:37:52;2.30;99.90
20594;DHT22;10455;48.732;10.266;2023-01-31T23:42:56;2.30;99.90
20594;DHT22;10455;48.732;10.266;2023-01-31T23:47:58;2.30;99.90
20594;DHT22;10455;48.732;10.266;2023-01-31T23:53:00;2.30;99.90
20594;DHT22;10455;48.732;10.266;2023-01-31T23:58:03;2.40;99.90
